Time;durP1;ratioP1;P1;durP2;ratioP2;P2;SDS_P1;SDS_P2;PMS_P1;PMS_P2;Temp;Humidity;BMP_temperature;BMP_pressure;BME280_temperature;BME280_humidity;BME280_pressure;Samples;Min_cycle;Max_cycle;Signal;HPM_P1;HPM_P2
2023/12/18 00:01:16;;;;;;;24.17;10.40;;;;;;;4.32;100.00;103307.84;5055090;28;20036;-80
2023/12/18 00:03:41;;;;;;;23.23;11.07;;;;;;;4.34;100.00;103304.41;5071822;28;20123;-81
2023/12/18 00:06:07;;;;;;;25.50;11.15;;;;;;;4.37;100.00;103304.53;5070973;28;20119;-80
2023/12/18 00:08:33;;;;;;;22.10;11.30;;;;;;;4.41;100.00;103301.22;5071894;28;20032;-81
2023/12/18 00:10:58;;;;;;;20.25;10.43;;;;;;;4.41;100.00;103309.97;5072217;28;20051;-80
2023/12/18 00:13:24;;;;;;;21.10;11.02;;;;;;;4.41;100.00;103311.72;5071900;28;20033;-81
2023/12/18 00:15:49;;;;;;;21.60;9.82;;;;;;;4.45;100.00;103306.66;5072857;28;20055;-80
2023/12/18 00:18:15;;;;;;;19.55;9.82;;;;;;;4.47;100.00;103299.72;5072742;28;20052;-81
2023/12/18 00:20:40;;;;;;;19.48;9.60;;;;;;;4.47;100.00;103296.22;5051268;28;20033;-81
2023/12/18 00:23:06;;;;;;;20.25;10.77;;;;;;;4.46;100.00;103292.69;5067210;28;20110;-81
2023/12/18 00:25:31;;;;;;;26.75;11.45;;;;;;;4.50;100.00;103294.63;5071452;28;20032;-81
2023/12/18 00:27:57;;;;;;;16.35;9.82;;;;;;;4.53;100.00;103299.13;5071672;28;20542;-80
2023/12/18 00:30:22;;;;;;;20.83;10.30;;;;;;;4.53;100.00;103292.13;5071194;28;20032;-80
2023/12/18 00:32:48;;;;;;;16.05;10.15;;;;;;;4.53;100.00;103288.63;5067761;28;20542;-81
2023/12/18 00:35:13;;;;;;;23.75;10.32;;;;;;;4.58;100.00;103292.31;5065919;28;20036;-81
2023/12/18 00:37:39;;;;;;;18.38;10.90;;;;;;;4.54;100.00;103282.53;5071184;28;20090;-81
2023/12/18 00:40:05;;;;;;;17.27;11.20;;;;;;;4.53;100.00;103279.00;5070703;28;20044;-81
2023/12/18 00:42:30;;;;;;;19.35;10.85;;;;;;;4.57;100.00;103281.75;5070579;28;20566;-80
2023/12/18 00:44:56;;;;;;;20.65;11.20;;;;;;;4.60;100.00;103280.16;5070798;28;20119;-80
2023/12/18 00:47:21;;;;;;;21.73;11.18;;;;;;;4.63;100.00;103284.66;5072038;28;20476;-81
2023/12/18 00:49:47;;;;;;;21.23;12.40;;;;;;;4.62;100.00;103288.09;5063569;28;20337;-81
2023/12/18 00:52:12;;;;;;;22.75;11.43;;;;;;;4.63;100.00;103277.66;5072096;28;20149;-80
2023/12/18 00:54:38;;;;;;;22.65;10.32;;;;;;;4.61;100.00;103279.31;5070569;28;20571;-80
2023/12/18 00:57:03;;;;;;;20.98;11.27;;;;;;;4.63;100.00;103276.78;5070847;28;20041;-81
2023/12/18 00:59:29;;;;;;;21.98;11.43;;;;;;;4.63;100.00;103280.28;5087350;28;20173;-82
2023/12/18 01:01:54;;;;;;;19.20;11.57;;;;;;;4.62;100.00;103267.97;5050992;28;20083;-81
2023/12/18 01:04:20;;;;;;;19.30;10.68;;;;;;;4.68;100.00;103273.50;5053869;28;20051;-81
2023/12/18 01:06:45;;;;;;;26.55;10.50;;;;;;;4.67;100.00;103276.97;5070973;28;20111;-81
2023/12/18 01:09:12;;;;;;;22.35;12.02;;;;;;;4.65;100.00;103277.72;5071646;28;20044;-81
2023/12/18 01:11:38;;;;;;;22.67;11.50;;;;;;;4.66;100.00;103271.66;5054229;28;20608;-80
2023/12/18 01:14:03;;;;;;;27.30;12.25;;;;;;;4.67;100.00;103276.06;5087310;28;20055;-81
2023/12/18 01:16:29;;;;;;;17.85;8.70;;;;;;;4.70;100.00;103276.22;5070433;28;20037;-81
2023/12/18 01:18:54;;;;;;;19.23;10.57;;;;;;;4.69;100.00;103263.91;5053981;28;20418;-81
2023/12/18 01:21:23;;;;;;;25.63;10.98;;;;;;;4.64;100.00;103263.69;5070235;28;20036;-81
2023/12/18 01:23:48;;;;;;;22.55;11.68;;;;;;;4.73;100.00;103264.09;5050359;28;20637;-81
2023/12/18 01:26:14;;;;;;;23.77;11.52;;;;;;;4.69;100.00;103267.41;5054364;28;20067;-81
2023/12/18 01:28:40;;;;;;;24.15;10.57;;;;;;;4.70;100.00;103265.69;5068432;28;20365;-81
2023/12/18 01:31:07;;;;;;;19.35;11.40;;;;;;;4.72;100.00;103270.19;5070281;28;20025;-81
2023/12/18 01:33:33;;;;;;;25.00;12.73;;;;;;;4.72;100.00;103264.00;5061287;28;20056;-81
2023/12/18 01:35:59;;;;;;;23.30;12.25;;;;;;;4.67;100.00;103262.94;5069999;28;20480;-80
2023/12/18 01:38:24;;;;;;;18.52;10.32;;;;;;;4.66;100.00;103271.66;5053376;28;20041;-80
2023/12/18 01:40:49;;;;;;;26.35;11.00;;;;;;;4.70;100.00;103281.47;5070151;28;20044;-80
2023/12/18 01:43:27;;;;;;;21.88;12.30;;;;;;;4.68;100.00;103277.88;5071474;28;20045;-80
2023/12/18 01:45:59;;;;;;;18.60;11.10;;;;;;;4.66;100.00;103267.28;5070182;28;20039;-81
2023/12/18 01:48:26;;;;;;;22.65;10.52;;;;;;;4.69;100.00;103266.53;5069919;28;20058;-80
2023/12/18 01:50:56;;;;;;;24.25;11.70;;;;;;;4.70;100.00;103281.47;5069736;28;20037;-80
2023/12/18 01:53:25;;;;;;;20.63;11.07;;;;;;;4.70;100.00;103274.47;5071158;28;20388;-81
2023/12/18 01:55:51;;;;;;;18.35;10.02;;;;;;;4.70;100.00;103271.84;5071288;28;20098;-80
2023/12/18 01:58:18;;;;;;;25.27;12.20;;;;;;;4.69;100.00;103267.41;5087058;28;20049;-80
2023/12/18 02:00:44;;;;;;;21.52;11.93;;;;;;;4.76;100.00;103259.81;5086391;28;20035;-81
2023/12/18 02:03:12;;;;;;;22.83;12.07;;;;;;;4.77;100.00;103253.69;5052995;28;20041;-80
2023/12/18 02:05:39;;;;;;;20.60;12.18;;;;;;;4.77;100.00;103257.22;5076898;28;20090;-80
2023/12/18 02:08:06;;;;;;;21.52;11.70;;;;;;;4.74;100.00;103255.38;5050057;28;20470;-81
2023/12/18 02:10:32;;;;;;;20.90;11.57;;;;;;;4.68;100.00;103247.25;5053184;28;20032;-81
2023/12/18 02:12:57;;;;;;;20.90;11.15;;;;;;;4.80;100.00;103267.88;5069959;28;20047;-81
2023/12/18 02:15:23;;;;;;;21.38;12.25;;;;;;;4.80;100.00;103256.44;5069908;28;20051;-81
2023/12/18 02:17:48;;;;;;;24.15;12.63;;;;;;;4.78;100.00;103243.28;5050984;28;20426;-81
2023/12/18 02:20:14;;;;;;;17.48;11.13;;;;;;;4.84;100.00;103258.38;5069952;28;20064;-80
2023/12/18 02:22:46;;;;;;;25.20;12.98;;;;;;;4.82;100.00;103249.53;5069786;28;20549;-81
2023/12/18 02:25:11;;;;;;;24.52;11.70;;;;;;;4.82;100.00;103244.28;5069658;28;20032;-81
2023/12/18 02:27:38;;;;;;;21.45;10.75;;;;;;;4.87;100.00;103241.03;5071082;28;20364;-81
2023/12/18 02:30:04;;;;;;;27.15;11.85;;;;;;;4.84;100.00;103240.00;5056281;28;20040;-81
2023/12/18 02:32:29;;;;;;;22.00;11.55;;;;;;;4.88;100.00;103242.81;5054422;28;20037;-81
2023/12/18 02:34:55;;;;;;;24.83;12.65;;;;;;;4.86;100.00;103235.72;5066026;28;20502;-80
2023/12/18 02:37:22;;;;;;;27.10;12.80;;;;;;;4.85;100.00;103249.69;5073524;28;20086;-80
2023/12/18 02:39:48;;;;;;;25.60;12.07;;;;;;;4.81;100.00;103242.50;5073268;28;20476;-81
2023/12/18 02:42:13;;;;;;;20.58;11.82;;;;;;;4.80;100.00;103240.69;5056802;28;20028;-81
2023/12/18 02:44:39;;;;;;;22.92;12.73;;;;;;;4.81;100.00;103230.28;5072931;28;20451;-81
2023/12/18 02:47:04;;;;;;;19.83;12.18;;;;;;;4.79;100.00;103228.41;5073051;28;20046;-81
2023/12/18 02:49:29;;;;;;;27.00;11.70;;;;;;;4.84;100.00;103226.88;5055088;28;20067;-81
2023/12/18 02:51:55;;;;;;;20.80;11.52;;;;;;;4.87;100.00;103227.91;5073022;28;20075;-81
2023/12/18 02:54:20;;;;;;;20.38;11.95;;;;;;;4.84;100.00;103224.25;5052776;28;20090;-81
2023/12/18 02:56:46;;;;;;;24.42;10.60;;;;;;;4.79;100.00;103212.66;5070683;28;20038;-81
2023/12/18 02:59:12;;;;;;;22.63;11.30;;;;;;;4.80;100.00;103212.75;5089842;28;20100;-81
2023/12/18 03:01:37;;;;;;;20.02;12.13;;;;;;;4.80;100.00;103220.63;5053132;28;20053;-81
2023/12/18 03:04:03;;;;;;;20.63;12.20;;;;;;;4.80;100.00;103218.00;5050584;28;20117;-81
2023/12/18 03:06:29;;;;;;;22.95;11.13;;;;;;;4.79;100.00;103210.94;5053145;28;20044;-81
2023/12/18 03:08:54;;;;;;;20.20;11.43;;;;;;;4.79;100.00;103213.56;5056173;28;20044;-81
2023/12/18 03:11:20;;;;;;;19.83;11.38;;;;;;;4.82;100.00;103207.53;5074137;28;20110;-81
2023/12/18 03:13:45;;;;;;;21.40;11.80;;;;;;;4.82;100.00;103215.41;5072595;28;20040;-81
2023/12/18 03:16:10;;;;;;;22.00;11.55;;;;;;;4.85;100.00;103220.81;5071795;28;20365;-81
2023/12/18 03:18:36;;;;;;;23.63;12.75;;;;;;;4.81;100.00;103217.13;5072514;28;20036;-81
2023/12/18 03:21:01;;;;;;;25.08;13.15;;;;;;;4.78;100.00;103214.41;5052592;28;20033;-80
2023/12/18 03:23:27;;;;;;;21.83;12.27;;;;;;;4.83;100.00;103212.84;5059521;28;20534;-80
2023/12/18 03:25:55;;;;;;;21.75;11.90;;;;;;;4.81;100.00;103217.13;5066387;28;20395;-81
2023/12/18 03:28:21;;;;;;;24.27;12.65;;;;;;;4.78;100.00;103217.03;5058847;28;20540;-81
2023/12/18 03:30:46;;;;;;;22.90;11.93;;;;;;;4.80;100.00;103215.38;5073884;28;20111;-81
2023/12/18 03:33:12;;;;;;;20.77;12.43;;;;;;;4.85;100.00;103211.19;5052052;28;20132;-80
2023/12/18 03:35:37;;;;;;;22.67;11.63;;;;;;;4.83;100.00;103214.59;5055622;28;20040;-81
2023/12/18 03:38:03;;;;;;;24.13;12.38;;;;;;;4.84;100.00;103205.88;5073381;28;20049;-81
2023/12/18 03:40:28;;;;;;;15.40;10.60;;;;;;;4.82;100.00;103203.19;5071393;28;20032;-81
2023/12/18 03:42:54;;;;;;;25.98;12.73;;;;;;;4.82;100.00;103208.44;5072222;28;20044;-81
2023/12/18 03:45:19;;;;;;;23.70;12.20;;;;;;;4.85;100.00;103212.94;5073189;28;20117;-81
2023/12/18 03:47:45;;;;;;;26.77;13.43;;;;;;;4.84;100.00;103211.13;5072178;28;20395;-81
2023/12/18 03:50:10;;;;;;;26.08;12.88;;;;;;;4.83;100.00;103211.97;5070780;28;20046;-81
2023/12/18 03:52:36;;;;;;;24.08;13.27;;;;;;;4.78;100.00;103222.28;5073297;28;20127;-80
2023/12/18 03:55:01;;;;;;;26.77;13.68;;;;;;;4.81;100.00;103216.25;5072919;28;20480;-80
2023/12/18 03:57:27;;;;;;;24.35;13.65;;;;;;;4.80;100.00;103217.06;5088986;28;20452;-80
2023/12/18 03:59:52;;;;;;;20.45;12.45;;;;;;;4.80;100.00;103218.00;5088155;28;20082;-80
2023/12/18 04:02:18;;;;;;;26.17;13.65;;;;;;;4.82;100.00;103210.16;5071821;28;20445;-81
2023/12/18 04:04:44;;;;;;;24.58;11.38;;;;;;;4.86;100.00;103207.72;5071410;28;20055;-81
2023/12/18 04:07:10;;;;;;;19.10;12.75;;;;;;;4.83;100.00;103212.84;5072978;28;20395;-81
2023/12/18 04:09:38;;;;;;;25.50;14.43;;;;;;;4.81;100.00;103216.25;5073125;28;20119;-80
2023/12/18 04:12:03;;;;;;;25.17;13.20;;;;;;;4.82;100.00;103215.41;5088675;28;20367;-80
2023/12/18 04:14:29;;;;;;;25.88;14.75;;;;;;;4.82;100.00;103213.69;5072829;28;20119;-80
2023/12/18 04:16:54;;;;;;;21.63;12.95;;;;;;;4.81;100.00;103205.75;5071639;28;20044;-81
2023/12/18 04:19:20;;;;;;;27.77;13.73;;;;;;;4.84;100.00;103205.88;5072696;28;20036;-81
2023/12/18 04:21:45;;;;;;;19.15;11.27;;;;;;;4.80;100.00;103210.13;5071539;28;20045;-81
2023/12/18 04:24:11;;;;;;;20.80;12.68;;;;;;;4.85;100.00;103213.81;5088155;28;20041;-80
2023/12/18 04:26:36;;;;;;;20.77;12.95;;;;;;;4.83;100.00;103199.72;5071361;28;20087;-80
2023/12/18 04:29:02;;;;;;;26.73;13.02;;;;;;;4.84;100.00;103201.50;5072719;28;20025;-80
2023/12/18 04:31:28;;;;;;;23.83;13.38;;;;;;;4.85;100.00;103200.69;5071248;28;20090;-81
2023/12/18 04:33:53;;;;;;;23.35;13.68;;;;;;;4.84;100.00;103204.13;5072052;28;20373;-81
2023/12/18 04:36:19;;;;;;;21.85;12.38;;;;;;;4.84;100.00;103198.88;5071318;28;20241;-80
2023/12/18 04:38:46;;;;;;;26.92;14.70;;;;;;;4.83;100.00;103198.84;5071112;28;20039;-81
2023/12/18 04:41:22;;;;;;;27.00;14.48;;;;;;;4.83;100.00;103202.34;5071530;28;20084;-81
2023/12/18 04:43:48;;;;;;;22.58;13.00;;;;;;;4.84;100.00;103188.38;5072335;28;20055;-81
2023/12/18 04:46:14;;;;;;;27.20;13.15;;;;;;;4.87;100.00;103190.22;5072479;28;20056;-80
2023/12/18 04:48:40;;;;;;;21.60;13.38;;;;;;;4.86;100.00;103189.34;5070844;28;20493;-81
2023/12/18 04:51:06;;;;;;;25.33;14.13;;;;;;;4.88;100.00;103198.19;5071454;28;20037;-81
2023/12/18 04:53:33;;;;;;;24.60;15.10;;;;;;;4.84;100.00;103188.38;5050830;28;20045;-80
2023/12/18 04:55:59;;;;;;;24.50;13.40;;;;;;;4.83;100.00;103183.97;5070780;28;20028;-81
2023/12/18 04:58:24;;;;;;;26.48;13.30;;;;;;;4.86;100.00;103194.59;5070702;28;20062;-80
2023/12/18 05:00:50;;;;;;;26.48;13.77;;;;;;;4.85;100.00;103190.19;5070364;28;20035;-80
2023/12/18 05:03:15;;;;;;;29.30;13.63;;;;;;;4.89;100.00;103188.56;5070545;28;20113;-81
2023/12/18 05:05:41;;;;;;;29.73;14.48;;;;;;;4.90;100.00;103195.63;5087500;28;20068;-80
2023/12/18 05:08:06;;;;;;;25.63;15.00;;;;;;;4.91;100.00;103197.41;5062890;28;20090;-81
2023/12/18 05:10:32;;;;;;;28.75;13.73;;;;;;;4.92;100.00;103192.22;5071730;28;20073;-81
2023/12/18 05:12:57;;;;;;;22.80;13.35;;;;;;;4.91;100.00;103186.91;5070879;28;20036;-82
2023/12/18 05:15:24;;;;;;;25.90;13.65;;;;;;;4.87;100.00;103188.53;5087604;28;20089;-81
2023/12/18 05:17:50;;;;;;;26.63;13.18;;;;;;;4.91;100.00;103192.16;5070640;28;20050;-81
2023/12/18 05:20:15;;;;;;;29.40;13.77;;;;;;;4.90;100.00;103188.63;5071913;28;20020;-80
2023/12/18 05:22:41;;;;;;;28.50;14.32;;;;;;;4.93;100.00;103190.47;5053713;28;20048;-80
2023/12/18 05:25:09;;;;;;;26.42;13.48;;;;;;;4.95;100.00;103194.06;5071896;28;20032;-80
2023/12/18 05:27:34;;;;;;;28.42;14.77;;;;;;;4.98;100.00;103188.94;5070328;28;20395;-80
2023/12/18 05:29:59;;;;;;;25.70;13.18;;;;;;;5.03;100.00;103200.50;5070241;28;20040;-80
2023/12/18 05:32:25;;;;;;;25.05;13.63;;;;;;;5.00;100.00;103197.78;5068534;28;20292;-80
2023/12/18 05:34:50;;;;;;;28.73;13.55;;;;;;;5.00;100.00;103186.38;5071235;28;20036;-80
2023/12/18 05:37:16;;;;;;;26.50;13.32;;;;;;;5.00;100.00;103189.88;5070296;28;20130;-80
2023/12/18 05:39:41;;;;;;;24.25;13.77;;;;;;;4.99;100.00;103197.69;5070112;28;20036;-80
2023/12/18 05:42:07;;;;;;;20.30;12.05;;;;;;;5.01;100.00;103188.16;5070470;28;20090;-80
2023/12/18 05:44:32;;;;;;;26.27;13.70;;;;;;;5.03;100.00;103190.00;5069949;28;20116;-80
2023/12/18 05:46:58;;;;;;;25.13;12.02;;;;;;;5.06;100.00;103187.47;5053498;28;20043;-80
2023/12/18 05:49:23;;;;;;;31.30;14.38;;;;;;;5.06;100.00;103190.09;5052440;28;20495;-80
2023/12/18 05:51:49;;;;;;;27.92;15.05;;;;;;;5.04;100.00;103188.25;5053358;28;20044;-79
2023/12/18 05:54:15;;;;;;;28.92;13.73;;;;;;;5.08;100.00;103190.19;5050127;28;20041;-80
2023/12/18 05:56:40;;;;;;;29.33;14.77;;;;;;;5.10;100.00;103197.28;5067559;28;20043;-79
2023/12/18 05:59:06;;;;;;;25.45;15.13;;;;;;;5.11;100.00;103179.78;5068703;28;20028;-79
2023/12/18 06:01:31;;;;;;;25.48;12.82;;;;;;;5.11;100.00;103187.66;5069851;28;20395;-79
2023/12/18 06:03:56;;;;;;;32.47;14.27;;;;;;;5.10;100.00;103193.78;5070087;28;20116;-80
2023/12/18 06:06:22;;;;;;;25.70;13.75;;;;;;;5.09;100.00;103181.44;5075474;28;20090;-81
2023/12/18 06:08:47;;;;;;;28.73;14.65;;;;;;;5.07;100.00;103186.66;5057798;28;20040;-81
2023/12/18 06:11:15;;;;;;;29.13;15.43;;;;;;;5.07;100.00;103176.16;5054127;28;20079;-81
2023/12/18 06:13:41;;;;;;;29.45;15.85;;;;;;;5.05;100.00;103182.19;5073200;28;20032;-81
2023/12/18 06:16:06;;;;;;;29.15;14.07;;;;;;;5.09;100.00;103184.06;5040714;28;20522;-81
2023/12/18 06:18:32;;;;;;;23.40;14.05;;;;;;;5.11;100.00;103179.78;5057307;28;20115;-81
2023/12/18 06:21:02;;;;;;;28.08;13.68;;;;;;;5.12;100.00;103177.22;5075431;28;20125;-81
2023/12/18 06:23:28;;;;;;;31.33;14.40;;;;;;;5.13;100.00;103186.88;5075111;28;20048;-81
2023/12/18 06:25:53;;;;;;;33.13;14.82;;;;;;;5.18;100.00;103179.19;5057276;28;20039;-80
2023/12/18 06:28:19;;;;;;;29.08;12.85;;;;;;;5.13;100.00;103180.75;5057535;28;20040;-80
2023/12/18 06:30:44;;;;;;;27.08;14.82;;;;;;;5.15;100.00;103195.72;5054207;28;20375;-81
2023/12/18 06:33:10;;;;;;;23.92;13.45;;;;;;;5.16;100.00;103183.47;5064358;28;20117;-80
2023/12/18 06:35:35;;;;;;;22.75;13.05;;;;;;;5.10;100.00;103184.16;5073218;28;20089;-81
2023/12/18 06:38:01;;;;;;;24.98;13.07;;;;;;;5.11;100.00;103185.03;5056500;28;20039;-81
2023/12/18 06:40:26;;;;;;;27.23;13.80;;;;;;;5.08;100.00;103180.56;5056278;28;20498;-81
2023/12/18 06:42:52;;;;;;;24.48;14.68;;;;;;;5.11;100.00;103182.41;5039634;28;20031;-81
2023/12/18 06:45:17;;;;;;;31.25;14.93;;;;;;;5.09;100.00;103179.72;5073206;28;20393;-81
2023/12/18 06:47:42;;;;;;;27.50;13.75;;;;;;;5.09;100.00;103179.72;5073380;28;20043;-80
2023/12/18 06:50:08;;;;;;;29.98;15.27;;;;;;;5.09;100.00;103181.44;5065891;28;20040;-80
2023/12/18 06:52:34;;;;;;;28.40;15.15;;;;;;;5.07;100.00;103178.78;5073192;28;20031;-79
2023/12/18 06:54:59;;;;;;;28.77;16.77;;;;;;;5.12;100.00;103184.22;5048864;28;20455;-79
2023/12/18 06:57:25;;;;;;;29.35;16.70;;;;;;;5.12;100.00;103186.84;5073286;28;20052;-80
2023/12/18 06:59:50;;;;;;;29.88;15.38;;;;;;;5.09;100.00;103189.34;5045671;28;20048;-80
2023/12/18 07:02:15;;;;;;;27.77;14.75;;;;;;;5.10;100.00;103196.41;5072678;28;20627;-80
2023/12/18 07:04:41;;;;;;;27.73;15.13;;;;;;;5.12;100.00;103189.47;5073861;28;20521;-80
2023/12/18 07:07:08;;;;;;;26.33;14.18;;;;;;;5.12;100.00;103186.84;5059695;28;20556;-80
2023/12/18 07:09:33;;;;;;;28.17;16.15;;;;;;;5.15;100.00;103195.72;5073095;28;20040;-80
2023/12/18 07:11:59;;;;;;;23.58;13.68;;;;;;;5.15;100.00;103190.47;5072708;28;20052;-80
2023/12/18 07:14:24;;;;;;;26.00;14.85;;;;;;;5.16;100.00;103201.88;5055554;28;20044;-80
2023/12/18 07:16:52;;;;;;;25.80;14.32;;;;;;;5.21;100.00;103195.06;5073730;28;20042;-80
2023/12/18 07:19:18;;;;;;;22.08;12.88;;;;;;;5.21;100.00;103202.94;5049576;28;20037;-80
2023/12/18 07:21:44;;;;;;;28.83;14.73;;;;;;;5.19;100.00;103201.97;5064864;28;20092;-80
2023/12/18 07:24:09;;;;;;;30.15;14.00;;;;;;;5.21;100.00;103207.31;5073299;28;20169;-80
2023/12/18 07:26:34;;;;;;;35.55;15.15;;;;;;;5.18;100.00;103202.81;5054309;28;20484;-79
2023/12/18 07:29:00;;;;;;;26.08;14.60;;;;;;;5.16;100.00;103202.75;5055675;28;20119;-79
2023/12/18 07:31:25;;;;;;;28.55;16.10;;;;;;;5.17;100.00;103201.94;5073771;28;20032;-80
2023/12/18 07:33:51;;;;;;;30.02;15.13;;;;;;;5.17;100.00;103195.78;5071476;28;20137;-80
2023/12/18 07:36:16;;;;;;;25.13;13.85;;;;;;;5.14;100.00;103195.66;5072476;28;20145;-80
2023/12/18 07:38:42;;;;;;;36.03;15.63;;;;;;;5.15;100.00;103195.72;5073581;28;20048;-79
2023/12/18 07:41:07;;;;;;;29.98;15.80;;;;;;;5.17;100.00;103201.94;5073550;28;20047;-80
2023/12/18 07:43:33;;;;;;;32.13;15.75;;;;;;;5.15;100.00;103200.97;5071719;28;20060;-79
2023/12/18 07:45:59;;;;;;;24.25;14.30;;;;;;;5.17;100.00;103193.16;5073474;28;20036;-80
2023/12/18 07:48:25;;;;;;;30.55;16.50;;;;;;;5.13;100.00;103193.88;5022171;28;20167;-79
2023/12/18 07:50:50;;;;;;;29.75;14.27;;;;;;;5.17;100.00;103195.78;5074063;28;20043;-80
2023/12/18 07:53:16;;;;;;;30.38;15.90;;;;;;;5.17;100.00;103198.44;5044938;28;20024;-80
2023/12/18 07:55:42;;;;;;;25.45;13.98;;;;;;;5.17;100.00;103191.44;5064931;28;20136;-81
2023/12/18 07:58:07;;;;;;;27.83;14.35;;;;;;;5.16;100.00;103187.00;5037619;28;20175;-82
2023/12/18 08:00:33;;;;;;;32.30;14.65;;;;;;;5.14;100.00;103193.94;5071789;28;20119;-81
2023/12/18 08:03:02;;;;;;;28.95;14.27;;;;;;;5.13;100.00;103184.25;5055185;28;21625;-82
2023/12/18 08:05:28;;;;;;;25.00;14.50;;;;;;;5.16;100.00;103189.63;5071694;28;20035;-82
2023/12/18 08:07:54;;;;;;;31.83;14.50;;;;;;;5.17;100.00;103187.91;5055093;28;20036;-81
2023/12/18 08:10:22;;;;;;;29.35;16.50;;;;;;;5.16;100.00;103184.38;5045895;28;20043;-79
2023/12/18 08:12:48;;;;;;;28.52;15.27;;;;;;;5.18;100.00;103177.44;5073096;28;20066;-79
2023/12/18 08:15:14;;;;;;;27.45;14.60;;;;;;;5.23;100.00;103174.09;5070873;28;20094;-79
2023/12/18 08:17:39;;;;;;;29.55;15.75;;;;;;;5.22;100.00;103174.94;5052525;28;20027;-79
2023/12/18 08:20:07;;;;;;;28.85;15.27;;;;;;;5.22;100.00;103180.19;5069905;28;20353;-79
2023/12/18 08:22:32;;;;;;;37.30;15.60;;;;;;;5.20;100.00;103177.50;5072226;28;20166;-79
2023/12/18 08:24:58;;;;;;;30.42;15.50;;;;;;;5.25;100.00;103175.97;5070821;28;20513;-79
2023/12/18 08:27:23;;;;;;;27.77;17.13;;;;;;;5.28;100.00;103178.69;5052899;28;20381;-79
2023/12/18 08:29:49;;;;;;;36.45;17.38;;;;;;;5.27;100.00;103176.03;5071684;28;20490;-80
2023/12/18 08:32:14;;;;;;;29.90;15.73;;;;;;;5.29;100.00;103172.63;5038001;28;20338;-80
2023/12/18 08:34:40;;;;;;;31.08;15.55;;;;;;;5.32;100.00;103180.59;5050913;28;20470;-80
2023/12/18 08:37:06;;;;;;;29.25;15.55;;;;;;;5.33;100.00;103176.25;5044732;28;20038;-80
2023/12/18 08:39:32;;;;;;;26.10;15.07;;;;;;;5.35;100.00;103171.94;5054139;28;20127;-80
2023/12/18 08:41:57;;;;;;;26.25;15.93;;;;;;;5.35;100.00;103167.56;5071501;28;20103;-79
2023/12/18 08:44:23;;;;;;;28.23;16.83;;;;;;;5.37;100.00;103160.66;5037474;28;20182;-80
2023/12/18 08:46:49;;;;;;;31.38;16.35;;;;;;;5.39;100.00;103160.72;5084566;28;20064;-80
2023/12/18 08:49:15;;;;;;;34.38;15.88;;;;;;;5.45;100.00;103160.03;5069070;28;20519;-80
2023/12/18 08:51:40;;;;;;;28.60;16.67;;;;;;;5.45;100.00;103165.28;5069863;28;20058;-80
2023/12/18 08:54:06;;;;;;;26.15;15.55;;;;;;;5.47;100.00;103161.88;5071620;28;20036;-80
2023/12/18 08:56:32;;;;;;;34.55;15.98;;;;;;;5.47;100.00;103167.13;5070392;28;20169;-80
2023/12/18 08:58:58;;;;;;;30.25;14.70;;;;;;;5.49;100.00;103160.22;5070526;28;20119;-80
2023/12/18 09:01:24;;;;;;;35.85;14.70;;;;;;;5.49;100.00;103159.28;5050839;28;20040;-80
2023/12/18 09:03:50;;;;;;;26.58;14.20;;;;;;;5.53;100.00;103162.09;5070351;28;20389;-80
2023/12/18 09:06:15;;;;;;;39.47;17.10;;;;;;;5.53;100.00;103156.84;5070565;28;20051;-80
2023/12/18 09:08:41;;;;;;;31.00;15.15;;;;;;;5.55;100.00;103156.91;5052970;28;20030;-80
2023/12/18 09:11:08;;;;;;;24.77;15.48;;;;;;;5.53;100.00;103162.09;5070227;28;20082;-80
2023/12/18 09:13:35;;;;;;;33.70;15.93;;;;;;;5.57;100.00;103152.59;5072025;28;20035;-81
2023/12/18 09:16:14;;;;;;;19.58;11.15;;;;;;;5.68;100.00;103159.13;5070315;28;20441;-82
2023/12/18 09:18:42;;;;;;;32.33;14.50;;;;;;;5.64;100.00;103141.47;5053176;28;20172;-82
2023/12/18 09:21:07;;;;;;;29.23;14.80;;;;;;;5.72;100.00;103158.38;5052464;28;20170;-82
2023/12/18 09:23:32;;;;;;;21.83;12.25;;;;;;;5.74;100.00;103161.97;5060611;28;20173;-83
2023/12/18 09:25:58;;;;;;;22.48;11.27;;;;;;;5.77;100.00;103162.06;5033517;28;20359;-83
2023/12/18 09:28:24;;;;;;;27.33;15.75;;;;;;;5.74;100.00;103161.97;5069650;28;20487;-82
2023/12/18 09:30:49;;;;;;;29.05;16.00;;;;;;;5.79;100.00;103165.66;5069602;28;20041;-82
2023/12/18 09:33:15;;;;;;;34.13;14.98;;;;;;;5.75;100.00;103162.88;5064936;28;20075;-82
2023/12/18 09:35:41;;;;;;;25.05;14.63;;;;;;;5.81;100.00;103163.06;5071511;28;20074;-83
2023/12/18 09:38:06;;;;;;;20.70;11.63;;;;;;;5.84;100.00;103167.56;5053330;28;20502;-82
2023/12/18 09:40:32;;;;;;;33.72;14.77;;;;;;;5.78;100.00;103160.34;5070547;28;20395;-82
2023/12/18 09:42:57;;;;;;;26.85;13.00;;;;;;;5.79;100.00;103167.41;5071914;28;20040;-82
2023/12/18 09:45:25;;;;;;;31.40;15.48;;;;;;;5.74;100.00;103166.34;5071297;28;20070;-82
2023/12/18 09:47:50;;;;;;;28.70;15.35;;;;;;;5.76;100.00;103159.38;5062314;28;20043;-82
2023/12/18 09:50:17;;;;;;;25.40;15.13;;;;;;;5.71;100.00;103153.06;5070277;28;20040;-82
2023/12/18 09:52:53;;;;;;;32.85;14.50;;;;;;;5.74;100.00;103161.09;5063416;28;20043;-83
2023/12/18 09:55:19;;;;;;;28.25;14.20;;;;;;;5.76;100.00;103162.94;5067887;28;20119;-83
2023/12/18 09:57:46;;;;;;;34.45;15.45;;;;;;;5.75;100.00;103155.84;5070242;28;20446;-82
2023/12/18 10:00:12;;;;;;;25.80;14.80;;;;;;;5.73;100.00;103156.66;5052986;28;20039;-82
2023/12/18 10:02:41;;;;;;;28.00;14.80;;;;;;;5.73;100.00;103154.91;5070093;28;20037;-83
2023/12/18 10:05:07;;;;;;;23.33;13.90;;;;;;;5.77;100.00;103156.81;5070103;28;20048;-83
2023/12/18 10:07:33;;;;;;;31.10;16.77;;;;;;;5.78;100.00;103145.44;5053275;28;20052;-82
2023/12/18 10:09:59;;;;;;;27.80;13.35;;;;;;;5.78;100.00;103139.28;5042616;28;20060;-82
2023/12/18 10:12:25;;;;;;;24.63;15.10;;;;;;;5.75;100.00;103145.34;5060194;28;20043;-82
2023/12/18 10:14:50;;;;;;;28.27;15.73;;;;;;;5.78;100.00;103142.81;5071106;28;20094;-82
2023/12/18 10:17:16;;;;;;;34.17;14.32;;;;;;;5.81;100.00;103147.28;5052095;28;20548;-81
2023/12/18 10:19:43;;;;;;;26.48;14.82;;;;;;;5.80;100.00;103142.88;5071295;28;20036;-81
2023/12/18 10:22:08;;;;;;;24.85;14.75;;;;;;;5.79;100.00;103136.72;5067844;28;20402;-82
2023/12/18 10:24:40;;;;;;;21.42;14.43;;;;;;;5.77;100.00;103133.16;5069554;28;20037;-81
2023/12/18 10:27:06;;;;;;;27.77;15.88;;;;;;;5.77;100.00;103143.66;5069719;28;20420;-82
2023/12/18 10:29:31;;;;;;;37.90;16.92;;;;;;;5.76;100.00;103144.53;5069047;28;20113;-82
2023/12/18 10:31:57;;;;;;;31.70;16.27;;;;;;;5.78;100.00;103140.19;5071637;28;20387;-81
2023/12/18 10:34:23;;;;;;;30.15;15.77;;;;;;;5.76;100.00;103139.25;5068706;28;20472;-82
2023/12/18 10:36:52;;;;;;;25.38;15.65;;;;;;;5.84;100.00;103143.91;5050217;28;20048;-83
2023/12/18 10:39:19;;;;;;;29.88;16.63;;;;;;;5.86;100.00;103124.69;5069914;28;20110;-81
2023/12/18 10:41:53;;;;;;;34.63;16.67;;;;;;;5.77;100.00;103119.13;5087228;28;20092;-82
2023/12/18 10:44:21;;;;;;;35.72;15.77;;;;;;;5.82;100.00;103128.06;5069670;28;20024;-82
2023/12/18 10:46:49;;;;;;;34.22;16.98;;;;;;;5.81;100.00;103114.03;5052825;28;20483;-81
2023/12/18 10:49:16;;;;;;;25.45;14.32;;;;;;;5.82;100.00;103110.53;5064758;28;20050;-82
2023/12/18 10:51:44;;;;;;;35.08;17.27;;;;;;;5.83;100.00;103098.28;5073079;28;20058;-82
2023/12/18 10:54:11;;;;;;;25.98;15.73;;;;;;;5.88;100.00;103101.06;5073684;28;20036;-82
2023/12/18 10:56:40;;;;;;;25.88;13.90;;;;;;;5.89;100.00;103094.97;5071170;28;20063;-82
2023/12/18 10:59:06;;;;;;;24.88;14.55;;;;;;;5.95;100.00;103100.47;5068649;28;20527;-81
2023/12/18 11:01:34;;;;;;;29.73;14.98;;;;;;;5.97;100.00;103089.16;5070747;28;20068;-82
2023/12/18 11:04:00;;;;;;;30.83;15.00;;;;;;;5.98;100.00;103088.34;5073452;28;20030;-82